Time;durP1;ratioP1;P1;durP2;ratioP2;P2;SDS_P1;SDS_P2;PMS_P1;PMS_P2;Temp;Humidity;BMP_temperature;BMP_pressure;BME280_temperature;BME280_humidity;BME280_pressure;Samples;Min_cycle;Max_cycle;Signal;HPM_P1;HPM_P2
2021/03/29 00:00:26;;;;;;;4.03;1.57;;;;;;;5.94;55.40;96907.72;5073901;28;20181;-73
2021/03/29 00:02:52;;;;;;;6.20;1.70;;;;;;;6.02;55.76;96906.47;5073878;28;20218;-74
2021/03/29 00:05:20;;;;;;;3.70;1.93;;;;;;;5.97;55.66;96911.88;5073531;28;20207;-74
2021/03/29 00:07:49;;;;;;;6.17;2.10;;;;;;;5.94;56.15;96905.16;5057335;28;20579;-73
2021/03/29 00:10:15;;;;;;;5.03;1.90;;;;;;;5.88;56.42;96908.03;5057029;28;20645;-74
2021/03/29 00:12:43;;;;;;;4.50;1.70;;;;;;;5.85;56.89;96902.22;5074610;28;20291;-74
2021/03/29 00:15:15;;;;;;;2.73;1.50;;;;;;;5.84;56.79;96914.28;5073208;28;20173;-74
2021/03/29 00:17:41;;;;;;;8.90;1.90;;;;;;;5.82;56.96;96908.38;5073528;28;20197;-74
2021/03/29 00:20:14;;;;;;;5.57;2.23;;;;;;;5.78;57.32;96904.31;5073497;28;20256;-73
2021/03/29 00:22:40;;;;;;;5.13;2.10;;;;;;;5.78;57.11;96909.47;5073395;28;20711;-74
2021/03/29 00:25:07;;;;;;;6.67;2.20;;;;;;;5.80;56.66;96912.78;5073210;28;20173;-74
2021/03/29 00:27:32;;;;;;;5.37;1.73;;;;;;;5.79;56.82;96916.28;5074640;28;20652;-73
2021/03/29 00:29:57;;;;;;;3.43;1.63;;;;;;;5.79;56.91;96905.97;5073419;28;20169;-74
2021/03/29 00:32:23;;;;;;;6.67;1.97;;;;;;;5.72;57.25;96922.69;5056446;28;20204;-74
2021/03/29 00:34:49;;;;;;;5.13;1.97;;;;;;;5.63;57.42;96924.00;5074231;28;20706;-74
2021/03/29 00:37:14;;;;;;;6.23;1.83;;;;;;;5.63;58.01;96920.59;5073800;28;20180;-74
2021/03/29 00:39:40;;;;;;;3.77;1.67;;;;;;;5.56;57.75;96922.69;5073747;28;20212;-74
2021/03/29 00:42:06;;;;;;;3.03;1.60;;;;;;;5.51;58.27;96924.69;5073907;28;20270;-74
2021/03/29 00:44:33;;;;;;;4.17;1.50;;;;;;;5.46;58.07;96923.28;5057139;28;20177;-74
2021/03/29 00:46:58;;;;;;;6.13;1.80;;;;;;;5.43;58.25;96919.13;5057193;28;20268;-74
2021/03/29 00:49:24;;;;;;;3.13;1.50;;;;;;;5.37;58.10;96917.69;5072876;28;20755;-74
2021/03/29 00:51:49;;;;;;;3.47;1.60;;;;;;;5.43;57.36;96918.28;5073668;28;20180;-74
2021/03/29 00:54:15;;;;;;;4.67;2.17;;;;;;;5.49;56.54;96911.06;5057262;28;20237;-74
2021/03/29 00:56:41;;;;;;;4.60;1.50;;;;;;;5.52;56.40;96917.78;5073647;28;20531;-74
2021/03/29 00:59:06;;;;;;;5.13;1.80;;;;;;;5.56;55.91;96920.09;5090568;28;20208;-74
2021/03/29 01:01:43;;;;;;;2.80;1.50;;;;;;;5.61;55.37;96919.88;5090734;28;20547;-74
2021/03/29 01:04:09;;;;;;;4.43;1.90;;;;;;;5.71;54.43;96922.78;5072780;28;20173;-74
2021/03/29 01:06:37;;;;;;;5.00;1.73;;;;;;;5.70;54.54;96927.09;5056074;28;20181;-74
2021/03/29 01:09:12;;;;;;;5.13;1.80;;;;;;;5.89;52.65;96917.44;5072924;28;20212;-74
2021/03/29 01:11:43;;;;;;;5.03;1.63;;;;;;;5.98;52.86;96918.69;5073204;28;20196;-74
2021/03/29 01:14:12;;;;;;;4.83;2.20;;;;;;;5.92;52.75;96919.88;5089749;28;20173;-74
2021/03/29 01:17:07;;;;;;;3.67;2.00;;;;;;;5.84;53.53;96921.19;5089066;28;20192;-74
2021/03/29 01:19:59;;;;;;;3.43;1.53;;;;;;;5.74;54.08;96927.75;5089427;28;20201;-74
2021/03/29 01:22:29;;;;;;;4.67;1.80;;;;;;;5.64;54.58;96927.41;5073703;28;20196;-74
2021/03/29 01:25:06;;;;;;;2.97;1.37;;;;;;;5.57;54.44;96926.13;5072030;28;20184;-74
2021/03/29 01:28:03;;;;;;;3.10;1.77;;;;;;;5.57;54.38;96926.94;5073740;28;20181;-74
2021/03/29 01:30:31;;;;;;;4.33;1.50;;;;;;;5.68;53.93;96931.50;5072330;28;20280;-74
2021/03/29 01:32:58;;;;;;;5.53;1.63;;;;;;;5.78;53.02;96930.09;5088910;28;20208;-74
2021/03/29 01:35:29;;;;;;;5.20;1.90;;;;;;;5.71;53.98;96928.75;5071825;28;20213;-74
2021/03/29 01:37:54;;;;;;;4.00;1.80;;;;;;;5.69;54.12;96928.84;5072228;28;20586;-74
2021/03/29 01:40:21;;;;;;;4.83;1.60;;;;;;;5.76;53.83;96931.94;5088989;28;20185;-74
2021/03/29 01:42:47;;;;;;;5.70;1.70;;;;;;;5.73;53.84;96933.81;5088780;28;20208;-74
2021/03/29 01:45:13;;;;;;;4.27;1.60;;;;;;;5.69;53.84;96926.28;5088632;28;20227;-74
2021/03/29 01:47:40;;;;;;;5.83;1.70;;;;;;;5.71;53.73;96933.91;5071785;28;20227;-74
2021/03/29 01:50:07;;;;;;;3.23;1.50;;;;;;;5.97;52.09;96925.59;5072089;28;20219;-74
2021/03/29 01:52:32;;;;;;;4.07;1.80;;;;;;;5.86;53.23;96922.75;5071691;28;20208;-74
2021/03/29 01:54:59;;;;;;;3.80;1.73;;;;;;;5.82;53.22;96931.56;5088499;28;20182;-74
2021/03/29 01:57:24;;;;;;;4.23;1.87;;;;;;;5.77;53.13;96927.59;5088636;28;20679;-74
2021/03/29 01:59:49;;;;;;;3.87;1.40;;;;;;;5.82;52.82;96933.31;5088390;28;20236;-74
2021/03/29 02:02:15;;;;;;;6.03;1.70;;;;;;;5.85;52.80;96926.25;5088281;28;20204;-74
2021/03/29 02:04:41;;;;;;;4.33;1.63;;;;;;;5.83;53.17;96925.53;5088255;28;20173;-74
2021/03/29 02:07:07;;;;;;;3.87;1.60;;;;;;;5.81;53.12;96927.34;5088396;28;20192;-74
2021/03/29 02:09:34;;;;;;;4.07;1.30;;;;;;;5.79;53.57;96929.16;5088354;28;20201;-74
2021/03/29 02:12:03;;;;;;;4.70;1.77;;;;;;;5.81;53.05;96926.50;5071165;28;20185;-74
2021/03/29 02:14:28;;;;;;;3.13;1.50;;;;;;;5.75;52.84;96925.13;5070798;28;20608;-74
2021/03/29 02:16:58;;;;;;;4.00;1.60;;;;;;;5.67;53.56;96930.69;5072516;28;20177;-74
2021/03/29 02:19:24;;;;;;;6.63;1.80;;;;;;;5.66;53.53;96930.78;5088022;28;20211;-74
2021/03/29 02:21:50;;;;;;;3.50;1.47;;;;;;;5.65;53.81;96926.50;5071238;28;20645;-74
2021/03/29 02:24:16;;;;;;;7.03;1.63;;;;;;;5.60;53.48;96923.38;5087896;28;20209;-74
2021/03/29 02:26:43;;;;;;;5.37;1.97;;;;;;;5.55;53.67;96927.94;5071002;28;20250;-74
2021/03/29 02:29:09;;;;;;;1.83;1.33;;;;;;;5.52;53.97;96921.19;5087979;28;20264;-74
2021/03/29 02:31:34;;;;;;;2.37;1.67;;;;;;;5.52;53.69;96925.53;5071305;28;20182;-74
2021/03/29 02:34:01;;;;;;;5.33;1.63;;;;;;;5.51;53.00;96926.44;5087875;28;20272;-74
2021/03/29 02:36:27;;;;;;;4.50;1.87;;;;;;;5.40;53.42;96927.84;5087652;28;20262;-74
2021/03/29 02:38:53;;;;;;;5.03;1.57;;;;;;;5.37;53.50;96930.56;5072096;28;20701;-74
2021/03/29 02:41:27;;;;;;;2.53;1.63;;;;;;;5.27;54.17;96926.00;5087683;28;20174;-74
2021/03/29 02:43:53;;;;;;;5.83;1.23;;;;;;;5.17;54.52;96924.84;5072117;28;20299;-74
2021/03/29 02:46:26;;;;;;;3.17;1.40;;;;;;;5.09;55.01;96927.81;5053880;28;20637;-74
2021/03/29 02:48:54;;;;;;;2.53;1.43;;;;;;;5.00;55.10;96928.28;5072087;28;20251;-74
2021/03/29 02:51:19;;;;;;;4.10;1.57;;;;;;;4.91;55.94;96924.44;5070672;28;20177;-74
2021/03/29 02:53:48;;;;;;;4.60;1.90;;;;;;;4.88;55.87;96929.75;5072320;28;20672;-74
2021/03/29 02:56:17;;;;;;;5.20;1.60;;;;;;;4.84;56.36;96926.50;5070323;28;20181;-74
2021/03/29 02:58:45;;;;;;;4.37;1.50;;;;;;;4.84;56.33;96925.66;5087453;28;20646;-74
2021/03/29 03:01:13;;;;;;;3.73;1.60;;;;;;;4.88;55.65;96928.94;5070505;28;20181;-74
2021/03/29 03:03:39;;;;;;;1.93;1.20;;;;;;;4.94;55.27;96929.41;5070530;28;20193;-74
2021/03/29 03:06:05;;;;;;;4.97;1.63;;;;;;;5.01;54.42;96933.34;5071560;28;20313;-74
2021/03/29 03:08:34;;;;;;;2.63;1.37;;;;;;;5.00;54.75;96936.84;5087295;28;20208;-74
2021/03/29 03:10:59;;;;;;;2.23;1.53;;;;;;;4.98;54.53;96938.66;5087122;28;20174;-74
2021/03/29 03:13:25;;;;;;;3.37;1.43;;;;;;;5.03;54.78;96941.81;5071482;28;20201;-74
2021/03/29 03:15:50;;;;;;;4.20;2.47;;;;;;;5.00;54.48;96946.31;5086815;28;20275;-74
2021/03/29 03:18:16;;;;;;;5.70;1.80;;;;;;;4.94;54.53;96944.03;5070241;28;20257;-74
2021/03/29 03:20:42;;;;;;;3.87;1.40;;;;;;;4.95;54.67;96943.16;5071496;28;20188;-74
2021/03/29 03:23:16;;;;;;;8.00;1.70;;;;;;;4.92;54.69;96943.28;5087056;28;20593;-74
2021/03/29 03:25:52;;;;;;;6.47;1.60;;;;;;;4.84;55.16;96947.09;5086938;28;20250;-74
2021/03/29 03:28:20;;;;;;;4.53;1.70;;;;;;;4.84;55.19;96943.69;5071519;28;20276;-74
2021/03/29 03:30:50;;;;;;;6.43;1.70;;;;;;;4.78;55.34;96944.84;5070248;28;20169;-74
2021/03/29 03:33:17;;;;;;;3.03;1.57;;;;;;;4.65;55.89;96946.38;5070268;28;20829;-74
2021/03/29 03:35:43;;;;;;;3.57;1.40;;;;;;;4.59;55.83;96944.09;5086883;28;20200;-74
2021/03/29 03:38:18;;;;;;;6.33;1.77;;;;;;;4.50;56.79;96944.56;5086898;28;20169;-74
2021/03/29 03:40:48;;;;;;;2.10;1.50;;;;;;;4.44;56.76;96953.41;5087139;28;20211;-74
2021/03/29 03:43:15;;;;;;;3.77;1.60;;;;;;;4.36;57.03;96944.41;5086978;28;20680;-74
2021/03/29 03:45:47;;;;;;;3.90;1.40;;;;;;;4.29;57.78;96948.19;5069723;28;20181;-74
2021/03/29 03:48:13;;;;;;;4.03;1.40;;;;;;;4.21;58.02;96961.41;5087018;28;20169;-74
2021/03/29 03:50:40;;;;;;;3.97;1.60;;;;;;;4.13;58.38;96958.38;5070241;28;20687;-74
2021/03/29 03:53:06;;;;;;;2.93;1.40;;;;;;;4.10;58.54;96956.78;5069942;28;20239;-74
2021/03/29 03:55:31;;;;;;;6.77;1.90;;;;;;;4.04;59.37;96951.94;5069954;28;20181;-74
2021/03/29 03:57:57;;;;;;;2.23;1.40;;;;;;;3.98;59.65;96954.81;5070003;28;20173;-74
2021/03/29 04:00:25;;;;;;;5.07;1.70;;;;;;;3.94;59.79;96954.13;5086725;28;20262;-74
2021/03/29 04:02:51;;;;;;;4.37;1.80;;;;;;;3.89;60.06;96958.66;5086453;28;20571;-74
2021/03/29 04:05:17;;;;;;;4.30;1.93;;;;;;;3.86;60.07;96960.53;5086622;28;20173;-74
2021/03/29 04:07:46;;;;;;;2.87;1.60;;;;;;;3.85;59.92;96956.28;5070083;28;20263;-74
2021/03/29 04:10:17;;;;;;;3.47;1.57;;;;;;;3.97;59.13;96964.25;5070061;28;20181;-74
2021/03/29 04:12:43;;;;;;;3.80;1.63;;;;;;;4.14;57.58;96960.88;5070836;28;20201;-74
2021/03/29 04:15:09;;;;;;;6.30;1.80;;;;;;;4.24;57.17;96964.69;5070852;28;20169;-74
2021/03/29 04:17:35;;;;;;;3.87;1.57;;;;;;;4.18;57.29;96959.84;5071090;28;20561;-74
2021/03/29 04:20:00;;;;;;;2.90;1.17;;;;;;;4.13;57.97;96964.34;5086594;28;20204;-74
2021/03/29 04:22:25;;;;;;;2.67;1.50;;;;;;;4.11;57.46;96965.34;5071017;28;20201;-74
2021/03/29 04:24:51;;;;;;;4.07;1.70;;;;;;;4.07;58.26;96968.97;5089189;28;20299;-74
2021/03/29 04:27:16;;;;;;;3.67;1.77;;;;;;;4.01;58.88;96964.13;5090278;28;20177;-74
2021/03/29 04:29:41;;;;;;;5.73;1.83;;;;;;;3.91;59.35;96967.13;5073241;28;20211;-74
2021/03/29 04:32:09;;;;;;;4.53;1.90;;;;;;;3.88;59.30;96966.41;5073309;28;20196;-74
2021/03/29 04:34:34;;;;;;;3.27;1.77;;;;;;;3.84;59.82;96972.63;5072995;28;20180;-74
2021/03/29 04:36:59;;;;;;;2.93;1.57;;;;;;;3.81;59.60;96973.59;5090227;28;20291;-74
2021/03/29 04:39:25;;;;;;;4.43;2.23;;;;;;;3.78;59.51;96972.91;5090051;28;20277;-74
2021/03/29 04:41:50;;;;;;;4.13;1.70;;;;;;;3.76;60.00;96974.72;5089906;28;20641;-73
2021/03/29 04:44:15;;;;;;;3.00;1.27;;;;;;;3.74;59.71;96982.50;5074230;28;20177;-74
2021/03/29 04:46:40;;;;;;;2.17;1.33;;;;;;;3.69;59.89;96980.13;5089869;28;20184;-74
2021/03/29 04:49:06;;;;;;;3.60;1.80;;;;;;;3.70;60.04;96986.94;5074379;28;20180;-74
2021/03/29 04:51:31;;;;;;;3.30;1.60;;;;;;;3.77;59.63;96984.91;5089972;28;20174;-74
2021/03/29 04:53:56;;;;;;;3.97;1.67;;;;;;;3.74;59.26;96986.81;5089864;28;20197;-74
2021/03/29 04:56:22;;;;;;;2.20;1.67;;;;;;;3.70;59.66;96986.09;5073745;28;20181;-74
2021/03/29 04:58:47;;;;;;;5.67;1.70;;;;;;;3.70;59.71;96986.94;5089769;28;20209;-74
2021/03/29 05:01:13;;;;;;;2.77;1.37;;;;;;;3.73;59.22;96985.16;5072806;28;20794;-74
2021/03/29 05:03:38;;;;;;;2.97;2.10;;;;;;;3.72;59.03;96986.06;5074407;28;20231;-74
2021/03/29 05:06:04;;;;;;;3.20;1.50;;;;;;;3.74;59.44;96984.25;5089400;28;20199;-74
2021/03/29 05:08:29;;;;;;;4.03;1.77;;;;;;;3.77;59.17;96981.50;5072684;28;20196;-74
2021/03/29 05:10:54;;;;;;;5.43;1.60;;;;;;;3.81;59.27;96989.03;5089383;28;20181;-74
2021/03/29 05:13:19;;;;;;;7.03;2.20;;;;;;;3.85;59.22;96994.84;5072327;28;20273;-74
2021/03/29 05:15:45;;;;;;;4.83;2.23;;;;;;;3.90;59.16;96988.59;5088991;28;20641;-74
2021/03/29 05:18:10;;;;;;;2.80;1.60;;;;;;;4.01;58.32;96995.78;5072422;28;20181;-74
2021/03/29 05:20:35;;;;;;;6.80;1.73;;;;;;;4.15;57.83;97003.69;5072282;28;20657;-74
2021/03/29 05:23:01;;;;;;;3.53;2.03;;;;;;;4.33;56.67;96998.56;5089227;28;20196;-74
2021/03/29 05:25:26;;;;;;;3.43;1.67;;;;;;;4.47;56.11;97001.31;5089045;28;20181;-74
2021/03/29 05:27:53;;;;;;;5.43;1.53;;;;;;;4.74;55.27;96994.78;5073568;28;20431;-74
2021/03/29 05:30:19;;;;;;;3.80;1.70;;;;;;;4.95;54.25;96992.91;5073500;28;20545;-74
2021/03/29 05:32:44;;;;;;;4.83;1.60;;;;;;;5.08;53.90;96995.66;5089057;28;20276;-74
2021/03/29 05:35:10;;;;;;;2.17;1.37;;;;;;;5.19;53.17;97000.25;5072693;28;20188;-74
2021/03/29 05:37:35;;;;;;;3.83;1.63;;;;;;;5.38;52.26;97001.78;5072076;28;20258;-73
2021/03/29 05:40:01;;;;;;;8.47;1.90;;;;;;;5.53;51.78;96999.34;5088896;28;20684;-74
2021/03/29 05:42:28;;;;;;;3.17;1.60;;;;;;;5.55;51.80;97000.91;5088840;28;20197;-74
2021/03/29 05:44:59;;;;;;;4.90;1.60;;;;;;;5.54;51.69;97001.00;5071812;28;20187;-74
2021/03/29 05:47:25;;;;;;;3.03;1.60;;;;;;;5.58;51.90;97005.91;5071990;28;20276;-74
2021/03/29 05:49:50;;;;;;;4.73;1.60;;;;;;;5.59;52.21;97005.00;5088686;28;20201;-74
2021/03/29 05:52:15;;;;;;;2.93;1.70;;;;;;;5.58;51.97;97005.09;5071045;28;20258;-76
2021/03/29 05:54:41;;;;;;;6.63;1.90;;;;;;;5.55;52.45;97010.38;5068816;28;20239;-74
2021/03/29 05:57:08;;;;;;;6.27;2.10;;;;;;;5.57;52.72;97017.16;5046002;28;20220;-74
2021/03/29 05:59:40;;;;;;;3.33;1.70;;;;;;;5.54;52.94;97017.28;5061777;28;20205;-74
2021/03/29 06:02:06;;;;;;;4.43;1.70;;;;;;;5.55;53.01;97020.69;5069418;28;20193;-73
2021/03/29 06:04:46;;;;;;;3.83;1.83;;;;;;;5.57;53.74;97021.47;5070122;28;20181;-74
2021/03/29 06:07:14;;;;;;;3.07;1.70;;;;;;;5.69;53.26;97028.53;5071271;28;20185;-73
2021/03/29 06:09:40;;;;;;;3.53;1.70;;;;;;;5.74;52.83;97026.53;5067778;28;20182;-73
2021/03/29 06:12:05;;;;;;;2.73;1.60;;;;;;;5.83;52.75;97038.94;5059866;28;20700;-74
2021/03/29 06:14:31;;;;;;;6.20;1.83;;;;;;;5.95;52.21;97037.50;5061449;28;20531;-74
2021/03/29 06:17:20;;;;;;;5.03;1.70;;;;;;;6.02;51.72;97041.41;5066921;28;20201;-73
2021/03/29 06:19:52;;;;;;;3.47;1.70;;;;;;;6.05;52.30;97041.22;5035489;28;20295;-74
2021/03/29 06:22:26;;;;;;;2.50;1.50;;;;;;;6.15;51.84;97046.72;5061028;28;20541;-74
2021/03/29 06:25:06;;;;;;;4.57;1.53;;;;;;;6.30;51.31;97052.78;5059609;28;20183;-73
2021/03/29 06:27:47;;;;;;;3.60;1.40;;;;;;;6.41;51.32;97060.75;5066870;28;20186;-74
2021/03/29 06:30:14;;;;;;;1.67;1.20;;;;;;;6.43;51.41;97056.34;5053967;28;20261;-74
2021/03/29 06:33:08;;;;;;;4.00;1.73;;;;;;;6.58;51.16;97064.97;5046508;28;20206;-73
2021/03/29 06:35:37;;;;;;;3.27;1.63;;;;;;;6.63;51.51;97068.16;5051811;28;20573;-73
2021/03/29 06:38:22;;;;;;;6.10;1.80;;;;;;;6.75;50.70;97068.28;5069195;28;20192;-73
2021/03/29 06:40:59;;;;;;;2.90;1.70;;;;;;;6.88;50.81;97072.72;5058403;28;20200;-73
2021/03/29 06:43:30;;;;;;;4.47;1.80;;;;;;;6.95;50.86;97064.53;5066914;28;20645;-74
2021/03/29 06:46:00;;;;;;;5.37;1.83;;;;;;;7.02;51.50;97063.28;5061135;28;20216;-74
2021/03/29 06:48:31;;;;;;;2.83;1.50;;;;;;;7.19;50.75;97071.81;5065110;28;20213;-73
2021/03/29 06:51:08;;;;;;;2.87;1.57;;;;;;;7.31;50.65;97063.31;5055465;28;20495;-73
2021/03/29 06:53:35;;;;;;;5.60;1.63;;;;;;;7.39;50.75;97068.88;5059388;28;20200;-74
2021/03/29 06:56:32;;;;;;;4.37;1.60;;;;;;;7.51;50.70;97069.88;5067804;28;20243;-73
2021/03/29 06:59:09;;;;;;;4.77;1.53;;;;;;;7.73;50.49;97066.84;5060255;28;20208;-74
2021/03/29 07:01:36;;;;;;;3.17;1.53;;;;;;;7.93;50.43;97069.88;5069666;28;20177;-73
2021/03/29 07:04:04;;;;;;;2.30;1.20;;;;;;;8.06;49.81;97069.13;5065730;28;20296;-74
2021/03/29 07:06:31;;;;;;;2.63;1.50;;;;;;;8.24;48.62;97074.00;5060854;28;20675;-74
2021/03/29 07:09:08;;;;;;;4.50;1.50;;;;;;;8.44;49.06;97077.94;5084191;28;20184;-73
2021/03/29 07:11:34;;;;;;;4.23;1.73;;;;;;;8.62;48.35;97072.53;5066973;28;20660;-73
2021/03/29 07:14:01;;;;;;;4.50;1.80;;;;;;;8.80;47.25;97074.75;5057508;28;20202;-73
2021/03/29 07:16:27;;;;;;;4.27;1.93;;;;;;;8.85;47.08;97078.81;5051160;28;20196;-74
2021/03/29 07:18:56;;;;;;;4.00;1.57;;;;;;;8.96;47.53;97084.13;5081185;28;20675;-73
2021/03/29 07:21:21;;;;;;;3.27;1.70;;;;;;;9.07;47.50;97084.25;5052268;28;20227;-73
2021/03/29 07:23:46;;;;;;;3.50;1.60;;;;;;;9.21;46.73;97080.75;5051082;28;20214;-74
2021/03/29 07:26:32;;;;;;;5.47;1.60;;;;;;;9.26;46.08;97076.09;5068434;28;20243;-74
2021/03/29 07:28:57;;;;;;;3.50;1.90;;;;;;;9.39;46.07;97089.06;5050537;28;20653;-73
2021/03/29 07:31:41;;;;;;;5.00;1.60;;;;;;;9.40;45.28;97090.72;5059111;28;20201;-74
2021/03/29 07:34:07;;;;;;;2.73;1.47;;;;;;;9.40;45.15;97094.16;5049996;28;20359;-73
2021/03/29 07:36:47;;;;;;;4.33;1.53;;;;;;;9.42;45.39;97097.47;5051194;28;20268;-74
2021/03/29 07:39:14;;;;;;;4.30;2.00;;;;;;;9.52;45.48;97097.69;5061826;28;20201;-74
2021/03/29 07:41:39;;;;;;;4.47;1.60;;;;;;;9.49;45.62;97105.66;5071832;28;20197;-74
2021/03/29 07:44:09;;;;;;;4.40;1.70;;;;;;;9.63;45.31;97103.00;5050760;28;20196;-74
2021/03/29 07:46:38;;;;;;;3.97;2.20;;;;;;;9.68;45.33;97108.69;5069208;28;20185;-75
2021/03/29 07:49:04;;;;;;;4.23;1.70;;;;;;;9.73;45.53;97103.19;5069529;28;20185;-74
2021/03/29 07:51:29;;;;;;;7.27;1.60;;;;;;;9.79;45.39;97107.94;5069127;28;20246;-74
2021/03/29 07:54:00;;;;;;;3.93;1.87;;;;;;;9.88;45.60;97099.53;5054383;28;20544;-74
2021/03/29 07:56:34;;;;;;;4.10;1.77;;;;;;;9.91;45.75;97107.94;5057820;28;20180;-73
2021/03/29 07:59:02;;;;;;;4.70;1.77;;;;;;;10.01;45.31;97105.56;5054761;28;20677;-74
2021/03/29 08:01:27;;;;;;;4.60;1.77;;;;;;;9.98;44.98;97105.75;5062672;28;20232;-74
2021/03/29 08:03:57;;;;;;;4.17;1.87;;;;;;;10.01;44.65;97109.91;5054920;28;20198;-73
2021/03/29 08:06:42;;;;;;;3.80;1.80;;;;;;;10.01;44.60;97107.31;5051250;28;20180;-74
2021/03/29 08:09:10;;;;;;;3.97;1.60;;;;;;;10.12;44.88;97107.41;5073230;28;20217;-74
2021/03/29 08:11:54;;;;;;;7.00;2.30;;;;;;;10.31;43.52;97114.75;5072499;28;20188;-74
2021/03/29 08:14:31;;;;;;;6.00;1.93;;;;;;;10.43;43.42;97108.72;5069432;28;20269;-74
2021/03/29 08:16:57;;;;;;;4.77;1.83;;;;;;;10.46;43.11;97124.06;5058068;28;20184;-74
2021/03/29 08:19:26;;;;;;;4.17;1.73;;;;;;;10.54;42.99;97113.97;5069760;28;20288;-74
2021/03/29 08:22:03;;;;;;;3.87;1.40;;;;;;;10.67;42.85;97114.75;5065104;28;20178;-74
2021/03/29 08:24:29;;;;;;;6.00;2.00;;;;;;;10.80;42.71;97108.69;5059640;28;20211;-74
2021/03/29 08:26:58;;;;;;;3.50;1.77;;;;;;;10.83;42.86;97113.66;5072835;28;20181;-73
2021/03/29 08:29:49;;;;;;;7.03;1.57;;;;;;;10.98;42.63;97120.34;5064025;28;20186;-73
2021/03/29 08:32:30;;;;;;;4.17;1.50;;;;;;;10.99;42.68;97127.19;5069623;28;20208;-73
2021/03/29 08:35:13;;;;;;;4.30;1.87;;;;;;;11.10;42.05;97121.19;5067069;28;20613;-74
2021/03/29 08:37:47;;;;;;;5.00;1.83;;;;;;;11.13;42.61;97128.75;5072602;28;20268;-73
2021/03/29 08:40:20;;;;;;;3.40;1.60;;;;;;;11.23;42.34;97130.59;5084736;28;20196;-73
2021/03/29 08:42:47;;;;;;;6.00;1.60;;;;;;;11.32;42.54;97129.94;5060999;28;20280;-73
2021/03/29 08:45:31;;;;;;;3.67;1.47;;;;;;;11.29;41.97;97119.72;5071246;28;20177;-73
2021/03/29 08:47:59;;;;;;;5.03;1.40;;;;;;;11.33;42.67;97128.16;5063467;28;20350;-72
2021/03/29 08:50:37;;;;;;;4.67;1.60;;;;;;;11.49;42.66;97128.66;5066895;28;20182;-73
2021/03/29 08:53:11;;;;;;;3.87;1.67;;;;;;;11.48;42.17;97129.59;5070590;28;20244;-72
2021/03/29 08:55:39;;;;;;;5.73;1.80;;;;;;;11.55;41.85;97128.19;5064820;28;20230;-73
2021/03/29 08:58:06;;;;;;;6.67;1.90;;;;;;;11.63;40.97;97122.41;5068067;28;20182;-73
2021/03/29 09:00:37;;;;;;;3.73;1.77;;;;;;;11.73;41.34;97135.56;5067225;28;20214;-73
2021/03/29 09:03:02;;;;;;;3.77;1.67;;;;;;;11.81;41.37;97130.63;5070489;28;20201;-73
2021/03/29 09:05:28;;;;;;;4.90;2.03;;;;;;;11.86;40.21;97123.31;5080073;28;20181;-73
2021/03/29 09:07:54;;;;;;;4.90;1.70;;;;;;;11.90;40.27;97119.53;5070266;28;20193;-73
2021/03/29 09:10:21;;;;;;;2.67;1.40;;;;;;;12.00;40.85;97130.88;5055466;28;20268;-73
2021/03/29 09:12:53;;;;;;;4.27;1.50;;;;;;;11.98;41.36;97130.19;5071197;28;20240;-73
2021/03/29 09:15:18;;;;;;;4.10;1.60;;;;;;;11.95;40.71;97133.03;5050761;28;20185;-73
2021/03/29 09:17:53;;;;;;;3.90;1.43;;;;;;;12.05;40.13;97133.97;5053149;28;20193;-73
2021/03/29 09:20:24;;;;;;;3.60;1.57;;;;;;;12.16;40.44;97133.97;5066791;28;20253;-73
2021/03/29 09:22:50;;;;;;;3.93;1.60;;;;;;;12.29;38.93;97140.84;5054685;28;20555;-73
2021/03/29 09:25:38;;;;;;;4.97;1.60;;;;;;;12.31;39.73;97137.16;5062676;28;20242;-73
2021/03/29 09:28:12;;;;;;;4.03;1.50;;;;;;;12.37;40.68;97138.47;5064439;28;20177;-72
2021/03/29 09:30:38;;;;;;;5.80;2.20;;;;;;;12.51;40.78;97143.41;5071295;28;20180;-73
2021/03/29 09:33:04;;;;;;;4.70;2.00;;;;;;;12.61;41.28;97141.75;5079129;28;20202;-73
2021/03/29 09:35:30;;;;;;;4.27;1.93;;;;;;;12.66;39.02;97139.59;5059920;28;20685;-73
2021/03/29 09:37:55;;;;;;;4.00;1.50;;;;;;;12.73;38.51;97138.19;5058164;28;20189;-73
2021/03/29 09:40:21;;;;;;;5.63;1.67;;;;;;;12.74;39.98;97152.88;5058450;28;20285;-73
2021/03/29 09:42:48;;;;;;;5.73;1.90;;;;;;;12.80;39.80;97154.13;5063609;28;20234;-73
2021/03/29 09:45:25;;;;;;;2.03;1.47;;;;;;;12.86;39.62;97152.81;5058463;28;20588;-73
2021/03/29 09:48:04;;;;;;;3.60;1.63;;;;;;;13.09;39.49;97140.56;5053945;28;20196;-72
2021/03/29 09:50:34;;;;;;;4.63;1.60;;;;;;;12.98;38.59;97151.84;5054221;28;20181;-73
2021/03/29 09:53:25;;;;;;;3.07;1.50;;;;;;;13.04;38.41;97151.34;5053233;28;20228;-72
2021/03/29 09:55:56;;;;;;;4.43;1.60;;;;;;;13.14;38.33;97157.47;5049099;28;20277;-72
2021/03/29 09:58:33;;;;;;;2.80;1.53;;;;;;;13.18;38.76;97156.28;5069326;28;20189;-72
2021/03/29 10:01:02;;;;;;;3.43;1.67;;;;;;;13.20;38.18;97164.03;5056764;28;20185;-73
2021/03/29 10:03:27;;;;;;;3.03;1.40;;;;;;;13.15;37.53;97156.53;5055314;28;20205;-73
2021/03/29 10:05:53;;;;;;;5.53;2.00;;;;;;;13.44;38.44;97162.03;5038278;28;20190;-74
2021/03/29 10:08:31;;;;;;;3.47;1.83;;;;;;;13.47;38.27;97163.53;5062001;28;20243;-74
2021/03/29 10:11:01;;;;;;;5.10;1.70;;;;;;;13.49;37.63;97159.03;5060698;28;20185;-73
2021/03/29 10:13:39;;;;;;;5.60;1.83;;;;;;;13.70;38.65;97149.44;5069835;28;20212;-73
2021/03/29 10:16:21;;;;;;;2.17;1.47;;;;;;;13.76;37.60;97142.84;5053199;28;20181;-74
2021/03/29 10:18:47;;;;;;;4.57;1.83;;;;;;;13.89;38.92;97139.09;5054429;28;20240;-74
2021/03/29 10:21:13;;;;;;;2.67;1.30;;;;;;;13.95;37.81;97139.50;5051484;28;20174;-74
2021/03/29 10:23:41;;;;;;;3.80;1.60;;;;;;;13.88;36.62;97140.06;5060922;28;20201;-73
2021/03/29 10:26:24;;;;;;;3.53;1.70;;;;;;;13.94;36.54;97143.09;5067984;28;20177;-74
2021/03/29 10:28:58;;;;;;;4.87;1.80;;;;;;;13.91;37.39;97141.56;5056230;28;20178;-73
2021/03/29 10:31:25;;;;;;;3.50;1.50;;;;;;;14.12;36.90;97141.53;5052269;28;20550;-72
2021/03/29 10:33:50;;;;;;;4.90;1.63;;;;;;;14.07;37.54;97141.94;5062255;28;20205;-73
2021/03/29 10:36:17;;;;;;;4.90;1.70;;;;;;;14.14;36.67;97130.00;5067050;28;20654;-73
2021/03/29 10:38:43;;;;;;;3.17;1.37;;;;;;;14.18;35.24;97128.78;5060507;28;20216;-73
2021/03/29 10:41:09;;;;;;;4.13;1.47;;;;;;;14.17;34.83;97134.97;5058481;28;20552;-73
2021/03/29 10:43:34;;;;;;;3.00;1.30;;;;;;;14.17;33.81;97128.91;5051717;28;20193;-73
2021/03/29 10:45:59;;;;;;;3.40;1.30;;;;;;;14.32;33.81;97135.44;5064228;28;20186;-72
2021/03/29 10:48:24;;;;;;;3.97;1.63;;;;;;;14.34;33.62;97136.13;5056423;28;20181;-73
2021/03/29 10:50:50;;;;;;;3.57;1.40;;;;;;;14.26;33.12;97138.56;5063279;28;20184;-73
2021/03/29 10:53:15;;;;;;;4.13;1.40;;;;;;;14.43;31.58;97137.94;5070022;28;20201;-73
2021/03/29 10:55:40;;;;;;;3.40;1.47;;;;;;;14.52;30.87;97132.91;5049788;28;20699;-72
2021/03/29 10:58:06;;;;;;;2.70;1.50;;;;;;;14.47;32.39;97133.31;5052696;28;20186;-73
2021/03/29 11:00:31;;;;;;;3.27;1.47;;;;;;;14.49;32.93;97135.78;5066366;28;20297;-73
2021/03/29 11:02:56;;;;;;;3.67;1.50;;;;;;;14.60;33.01;97135.69;5066058;28;20205;-73
2021/03/29 11:05:22;;;;;;;4.73;1.40;;;;;;;14.58;31.61;97132.41;5058697;28;20181;-73
2021/03/29 11:07:47;;;;;;;4.10;1.47;;;;;;;14.72;33.78;97134.59;5051588;28;20213;-73
2021/03/29 11:10:13;;;;;;;3.00;1.60;;;;;;;14.84;33.13;97130.94;5053596;28;20665;-74
2021/03/29 11:12:38;;;;;;;3.83;1.60;;;;;;;14.74;32.34;97130.88;5037285;28;20245;-73
2021/03/29 11:15:05;;;;;;;2.90;1.37;;;;;;;14.64;31.41;97127.44;5055972;28;20193;-73
2021/03/29 11:17:33;;;;;;;2.57;1.53;;;;;;;14.83;31.88;97131.88;5055856;28;20178;-74
2021/03/29 11:19:58;;;;;;;2.90;1.50;;;;;;;14.86;31.47;97134.22;5053712;28;20274;-74
2021/03/29 11:22:23;;;;;;;2.07;1.43;;;;;;;14.85;30.96;97131.75;5063183;28;20284;-74
2021/03/29 11:24:49;;;;;;;4.57;1.20;;;;;;;15.07;32.58;97128.06;5060378;28;20718;-74
2021/03/29 11:27:14;;;;;;;2.77;1.47;;;;;;;15.15;32.93;97130.81;5060166;28;20260;-73
2021/03/29 11:29:39;;;;;;;2.73;1.40;;;;;;;14.99;30.99;97131.34;5066798;28;20707;-74
2021/03/29 11:32:05;;;;;;;2.43;1.40;;;;;;;14.91;29.87;97124.19;5064607;28;20272;-73
2021/03/29 11:34:31;;;;;;;4.37;1.57;;;;;;;14.80;31.23;97116.47;5053450;28;20239;-74
2021/03/29 11:36:56;;;;;;;2.07;1.20;;;;;;;14.97;32.11;97123.63;5054793;28;20189;-73
2021/03/29 11:39:21;;;;;;;2.97;1.27;;;;;;;15.02;31.63;97124.06;5052156;28;20243;-73
2021/03/29 11:41:47;;;;;;;3.63;1.43;;;;;;;15.11;31.28;97118.97;5060890;28;20268;-73
2021/03/29 11:44:12;;;;;;;5.20;1.40;;;;;;;15.23;31.13;97117.88;5064238;28;20182;-74
2021/03/29 11:46:37;;;;;;;3.00;1.33;;;;;;;15.41;31.83;97107.53;5072618;28;20223;-74